createdAt,value
2018-07-22T00:00:42.108Z,20.60
2018-07-22T00:03:10.163Z,20.50
2018-07-22T00:05:38.267Z,20.50
2018-07-22T00:08:06.416Z,20.40
2018-07-22T00:10:34.491Z,20.40
2018-07-22T00:13:02.555Z,20.40
2018-07-22T00:15:30.627Z,20.40
2018-07-22T00:17:58.774Z,20.40
2018-07-22T00:20:26.864Z,20.40
2018-07-22T00:22:54.916Z,20.40
2018-07-22T00:25:23.023Z,20.40
2018-07-22T00:27:51.098Z,20.40
2018-07-22T00:30:19.186Z,20.40
2018-07-22T00:32:47.295Z,20.40
2018-07-22T00:35:15.392Z,20.40
2018-07-22T00:37:43.532Z,20.40
2018-07-22T00:40:12.312Z,20.40
2018-07-22T00:42:40.441Z,20.40
2018-07-22T00:45:11.030Z,20.30
2018-07-22T00:47:39.312Z,20.30
2018-07-22T00:52:35.432Z,20.20
2018-07-22T00:55:03.950Z,20.10
2018-07-22T00:57:32.422Z,20.10
2018-07-22T01:00:00.570Z,20.00
2018-07-22T01:02:28.737Z,20.00
2018-07-22T01:04:56.874Z,20.00
2018-07-22T01:07:24.993Z,20.00
2018-07-22T01:09:53.137Z,20.00
2018-07-22T01:12:21.598Z,20.00
2018-07-22T01:14:49.651Z,20.10
2018-07-22T01:19:45.813Z,20.20
2018-07-22T01:22:13.907Z,20.20
2018-07-22T01:24:42.003Z,20.20
2018-07-22T01:27:10.236Z,20.20
2018-07-22T01:29:38.355Z,20.20
2018-07-22T01:32:06.438Z,20.10
2018-07-22T01:34:34.576Z,20.10
2018-07-22T01:37:02.631Z,20.10
2018-07-22T01:39:30.760Z,20.00
2018-07-22T01:41:58.857Z,20.00
2018-07-22T01:44:26.984Z,19.90
2018-07-22T01:46:55.109Z,19.90
2018-07-22T01:49:23.208Z,19.90
2018-07-22T01:51:51.297Z,19.90
2018-07-22T01:54:19.360Z,19.80
2018-07-22T01:56:47.459Z,19.80
2018-07-22T01:59:15.548Z,19.70
2018-07-22T02:01:43.791Z,19.70
2018-07-22T02:04:11.793Z,19.60
2018-07-22T02:06:39.910Z,19.60
2018-07-22T02:09:09.306Z,19.40
2018-07-22T02:11:37.387Z,19.40
2018-07-22T02:14:05.467Z,19.30
2018-07-22T02:16:33.538Z,19.30
2018-07-22T02:21:29.836Z,19.30
2018-07-22T02:23:57.948Z,19.40
2018-07-22T02:26:26.151Z,19.40
2018-07-22T02:28:54.291Z,19.30
2018-07-22T02:31:22.356Z,19.30
2018-07-22T02:33:50.440Z,19.30
2018-07-22T02:36:18.530Z,19.20
2018-07-22T02:38:46.671Z,19.30
2018-07-22T02:41:14.761Z,19.20
2018-07-22T02:43:42.815Z,19.10
2018-07-22T02:46:10.989Z,19.00
2018-07-22T02:48:39.097Z,19.00
2018-07-22T02:51:07.148Z,18.90
2018-07-22T02:53:35.216Z,18.90
2018-07-22T02:56:03.316Z,18.80
2018-07-22T02:58:31.371Z,18.80
2018-07-22T03:00:59.415Z,18.70
2018-07-22T03:03:27.602Z,18.70
2018-07-22T03:05:55.669Z,18.60
2018-07-22T03:08:23.750Z,18.50
2018-07-22T03:10:51.862Z,18.50
2018-07-22T03:13:19.972Z,18.50
2018-07-22T03:15:48.065Z,18.50
2018-07-22T03:18:16.155Z,18.50
2018-07-22T03:20:44.210Z,18.50
2018-07-22T03:23:12.401Z,18.60
2018-07-22T03:25:40.528Z,18.70
2018-07-22T03:28:08.830Z,18.80
2018-07-22T03:30:37.147Z,18.80
2018-07-22T03:33:05.260Z,18.90
2018-07-22T03:35:33.320Z,18.90
2018-07-22T03:40:29.385Z,18.80
2018-07-22T03:42:57.559Z,18.80
2018-07-22T03:45:25.615Z,18.80
2018-07-22T03:47:53.808Z,18.90
2018-07-22T03:50:21.921Z,19.00
2018-07-22T03:52:50.005Z,19.10
2018-07-22T03:55:18.058Z,19.10
2018-07-22T03:57:46.197Z,19.10
2018-07-22T04:00:14.286Z,19.10
2018-07-22T04:02:42.353Z,19.10
2018-07-22T04:05:10.479Z,19.10
2018-07-22T04:07:38.578Z,19.10
2018-07-22T04:10:06.706Z,19.10
2018-07-22T04:12:34.879Z,19.20
2018-07-22T04:15:02.971Z,19.20
2018-07-22T04:17:31.065Z,19.20
2018-07-22T04:19:59.149Z,19.20
2018-07-22T04:22:27.258Z,19.10
2018-07-22T04:24:55.496Z,19.20
2018-07-22T04:27:23.588Z,19.20
2018-07-22T04:29:51.697Z,19.30
2018-07-22T04:32:19.822Z,19.40
2018-07-22T04:34:48.034Z,19.40
2018-07-22T04:37:16.117Z,19.50
2018-07-22T04:39:44.376Z,19.60
2018-07-22T04:42:12.501Z,19.60
2018-07-22T04:44:40.583Z,19.60
2018-07-22T04:47:08.657Z,19.70
2018-07-22T04:49:36.849Z,19.80
2018-07-22T04:52:04.946Z,19.80
2018-07-22T04:54:33.071Z,19.80
2018-07-22T04:57:01.149Z,19.80
2018-07-22T04:59:29.278Z,19.80
2018-07-22T05:01:57.401Z,19.90
2018-07-22T05:06:53.429Z,19.90
2018-07-22T05:09:21.619Z,20.00
2018-07-22T05:11:49.686Z,20.10
2018-07-22T05:14:17.742Z,20.20
2018-07-22T05:16:45.978Z,20.30
2018-07-22T05:19:14.054Z,20.40
2018-07-22T05:21:42.124Z,20.40
2018-07-22T05:24:10.251Z,20.50
2018-07-22T05:26:38.399Z,20.60
2018-07-22T05:29:06.633Z,20.60
2018-07-22T05:31:34.740Z,20.70
2018-07-22T05:34:02.958Z,20.80
2018-07-22T05:36:31.040Z,20.80
2018-07-22T05:38:59.172Z,20.80
2018-07-22T05:41:27.254Z,20.90
2018-07-22T05:43:55.714Z,20.90
2018-07-22T05:46:23.802Z,21.10
2018-07-22T05:48:52.009Z,21.20
2018-07-22T05:53:48.036Z,21.30
2018-07-22T05:56:16.085Z,21.30
2018-07-22T05:58:44.295Z,21.30
2018-07-22T06:01:12.364Z,21.40
2018-07-22T06:03:40.503Z,21.50
2018-07-22T06:06:08.591Z,21.60
2018-07-22T06:08:36.681Z,21.70
2018-07-22T06:11:04.806Z,21.80
2018-07-22T06:13:32.897Z,21.90
2018-07-22T06:16:01.035Z,21.90
2018-07-22T06:18:29.115Z,22.00
2018-07-22T06:23:25.185Z,22.10
2018-07-22T06:25:53.346Z,22.20
2018-07-22T06:28:21.459Z,22.30
2018-07-22T06:30:49.575Z,22.30
2018-07-22T06:33:17.644Z,22.40
2018-07-22T06:35:45.835Z,22.50
2018-07-22T06:38:14.006Z,22.60
2018-07-22T06:40:42.116Z,22.70
2018-07-22T06:43:10.352Z,22.70
2018-07-22T06:45:38.454Z,22.70
2018-07-22T06:48:06.526Z,22.80
2018-07-22T06:50:34.652Z,22.80
2018-07-22T06:53:02.793Z,22.90
2018-07-22T06:55:30.967Z,22.90
2018-07-22T06:57:59.100Z,23.00
2018-07-22T07:00:27.217Z,23.00
2018-07-22T07:02:55.368Z,23.00
2018-07-22T07:05:23.654Z,23.10
2018-07-22T07:07:51.739Z,23.20
2018-07-22T07:10:19.878Z,23.20
2018-07-22T07:12:47.992Z,23.30
2018-07-22T07:15:16.078Z,23.40
2018-07-22T07:17:44.250Z,23.60
2018-07-22T07:20:12.352Z,23.60
2018-07-22T07:22:40.423Z,23.70
2018-07-22T07:25:08.777Z,23.70
2018-07-22T07:27:36.861Z,23.90
2018-07-22T07:30:05.392Z,24.10
2018-07-22T07:32:33.504Z,24.40
2018-07-22T07:35:01.567Z,24.50
2018-07-22T07:37:29.649Z,24.70
2018-07-22T07:39:57.759Z,24.80
2018-07-22T07:44:53.875Z,25.00
2018-07-22T07:47:22.271Z,25.10
2018-07-22T07:49:50.342Z,25.10
2018-07-22T07:52:18.440Z,25.20
2018-07-22T07:54:46.516Z,25.50
2018-07-22T07:57:14.600Z,25.60
2018-07-22T07:59:42.654Z,25.60
2018-07-22T08:02:10.793Z,25.60
2018-07-22T08:04:38.910Z,25.70
2018-07-22T08:07:07.015Z,25.70
2018-07-22T08:09:35.111Z,25.70
2018-07-22T08:12:03.186Z,26.00
2018-07-22T08:14:31.401Z,26.30
2018-07-22T08:16:59.562Z,26.40
2018-07-22T08:19:27.655Z,26.40
2018-07-22T08:24:23.823Z,26.30
2018-07-22T08:26:51.890Z,26.30
2018-07-22T08:29:25.525Z,26.20
2018-07-22T08:31:53.632Z,26.40
2018-07-22T08:34:21.829Z,26.40
2018-07-22T08:36:50.115Z,26.60
2018-07-22T08:39:19.582Z,26.70
2018-07-22T08:41:48.204Z,26.80
2018-07-22T08:44:16.282Z,26.90
2018-07-22T08:46:44.325Z,27.00
2018-07-22T08:49:12.419Z,26.60
2018-07-22T08:51:40.499Z,26.50
2018-07-22T08:54:08.557Z,26.80
2018-07-22T08:59:04.881Z,26.90
2018-07-22T09:01:32.953Z,27.10
2018-07-22T09:04:01.005Z,27.30
2018-07-22T09:06:29.468Z,27.40
2018-07-22T09:08:57.582Z,27.50
2018-07-22T09:11:26.121Z,27.60
2018-07-22T09:13:54.787Z,27.70
2018-07-22T09:18:50.781Z,27.30
2018-07-22T09:21:18.919Z,26.90
2018-07-22T09:23:47.039Z,27.20
2018-07-22T09:26:15.129Z,27.10
2018-07-22T09:28:43.178Z,27.40
2018-07-22T09:31:11.226Z,27.70
2018-07-22T09:33:39.294Z,28.10
2018-07-22T09:36:07.428Z,28.30
2018-07-22T09:38:35.414Z,28.30
2018-07-22T09:41:03.489Z,28.40
2018-07-22T09:43:31.574Z,28.40
2018-07-22T09:45:59.680Z,28.10
2018-07-22T09:48:27.762Z,28.20
2018-07-22T09:50:55.902Z,28.20
2018-07-22T09:53:23.993Z,28.20
2018-07-22T09:55:52.102Z,28.20
2018-07-22T09:58:20.207Z,28.10
2018-07-22T10:00:52.354Z,28.10
2018-07-22T10:03:20.612Z,28.20
2018-07-22T10:05:48.751Z,28.20
2018-07-22T10:08:16.854Z,28.20
2018-07-22T10:10:44.927Z,28.30
2018-07-22T10:13:13.030Z,28.10
2018-07-22T10:15:41.124Z,27.80
2018-07-22T10:18:09.310Z,27.50
2018-07-22T10:20:37.464Z,27.60
2018-07-22T10:23:05.606Z,27.80
2018-07-22T10:25:33.678Z,27.80
2018-07-22T10:28:01.743Z,28.00
2018-07-22T10:30:29.875Z,28.10
2018-07-22T10:32:58.035Z,28.20
2018-07-22T10:35:26.139Z,28.30
2018-07-22T10:37:54.289Z,28.40
2018-07-22T10:40:22.396Z,28.60
2018-07-22T10:42:50.483Z,28.60
2018-07-22T10:45:18.550Z,28.50
2018-07-22T10:47:46.643Z,28.60
2018-07-22T10:50:14.710Z,28.70
2018-07-22T10:52:42.876Z,28.70
2018-07-22T10:55:10.965Z,28.60
2018-07-22T10:57:39.060Z,28.80
2018-07-22T11:02:35.471Z,28.90
2018-07-22T11:05:04.130Z,29.10
2018-07-22T11:07:32.232Z,28.90
2018-07-22T11:10:00.294Z,29.10
2018-07-22T11:12:28.445Z,29.10
2018-07-22T11:14:56.670Z,29.30
2018-07-22T11:17:24.779Z,29.30
2018-07-22T11:19:52.851Z,29.40
2018-07-22T11:22:20.939Z,29.30
2018-07-22T11:24:49.032Z,29.30
2018-07-22T11:27:17.187Z,29.30
2018-07-22T11:29:45.312Z,29.20
2018-07-22T11:32:13.444Z,29.30
2018-07-22T11:34:41.582Z,28.90
2018-07-22T11:37:09.710Z,28.80
2018-07-22T11:39:37.797Z,28.80
2018-07-22T11:42:05.971Z,29.10
2018-07-22T11:44:34.136Z,29.20
2018-07-22T11:47:02.199Z,29.10
2018-07-22T11:49:30.352Z,29.10
2018-07-22T11:51:58.461Z,29.20
2018-07-22T11:54:26.603Z,29.20
2018-07-22T11:56:54.732Z,29.10
2018-07-22T11:59:22.845Z,29.10
2018-07-22T12:01:50.921Z,29.10
2018-07-22T12:04:19.056Z,29.00
2018-07-22T12:06:47.151Z,29.00
2018-07-22T12:09:15.256Z,29.00
2018-07-22T12:11:43.358Z,28.70
2018-07-22T12:14:11.479Z,28.40
2018-07-22T12:16:39.599Z,28.50
2018-07-22T12:19:07.693Z,28.60
2018-07-22T12:21:35.765Z,28.40
2018-07-22T12:24:03.950Z,28.60
2018-07-22T12:26:32.060Z,28.70
2018-07-22T12:29:00.560Z,28.70
2018-07-22T12:31:28.607Z,28.80
2018-07-22T12:33:57.105Z,28.80
2018-07-22T12:36:25.228Z,28.90
2018-07-22T12:38:53.402Z,28.80
2018-07-22T12:41:21.543Z,28.60
2018-07-22T12:43:49.735Z,28.30
2018-07-22T12:46:17.851Z,28.20
2018-07-22T12:48:45.975Z,28.20
2018-07-22T12:51:14.045Z,28.10
2018-07-22T12:53:42.175Z,28.20
2018-07-22T12:56:10.271Z,28.30
2018-07-22T12:58:38.344Z,28.50
2018-07-22T13:01:06.454Z,28.60
2018-07-22T13:03:34.566Z,28.60
2018-07-22T13:06:02.717Z,28.60
2018-07-22T13:08:30.924Z,28.50
2018-07-22T13:10:58.995Z,28.50
2018-07-22T13:13:27.090Z,28.50
2018-07-22T13:15:55.192Z,28.60
2018-07-22T13:18:23.261Z,28.60
2018-07-22T13:20:51.355Z,28.40
2018-07-22T13:23:19.429Z,28.20
2018-07-22T13:25:47.490Z,28.20
2018-07-22T13:28:15.650Z,28.10
2018-07-22T13:30:43.743Z,28.10
2018-07-22T13:33:11.835Z,27.90
2018-07-22T13:35:39.964Z,28.10
2018-07-22T13:38:08.032Z,28.10
2018-07-22T13:43:03.914Z,28.10
2018-07-22T13:45:32.112Z,28.10
2018-07-22T13:48:00.238Z,28.20
2018-07-22T13:50:28.374Z,28.20
2018-07-22T13:55:24.517Z,28.30
2018-07-22T13:57:52.749Z,28.40
2018-07-22T14:00:20.939Z,28.60
2018-07-22T14:02:49.035Z,28.80
2018-07-22T14:05:17.103Z,28.90
2018-07-22T14:07:45.212Z,28.80
2018-07-22T14:10:13.337Z,28.70
2018-07-22T14:12:41.526Z,28.60
2018-07-22T14:17:37.673Z,28.50
2018-07-22T14:20:05.804Z,28.50
2018-07-22T14:22:33.931Z,28.50
2018-07-22T14:25:02.508Z,28.50
2018-07-22T14:27:30.584Z,28.50
2018-07-22T14:29:58.690Z,28.70
2018-07-22T14:32:26.806Z,28.50
2018-07-22T14:34:54.940Z,28.60
2018-07-22T14:37:23.014Z,28.50
2018-07-22T14:39:51.140Z,28.50
2018-07-22T14:42:19.236Z,28.60
2018-07-22T14:44:47.321Z,28.50
2018-07-22T14:47:15.533Z,28.40
2018-07-22T14:54:39.351Z,28.10
2018-07-22T14:57:07.448Z,28.10
2018-07-22T14:59:35.541Z,28.20
2018-07-22T15:02:03.617Z,28.20
2018-07-22T15:04:31.764Z,28.20
2018-07-22T15:06:59.824Z,28.10
2018-07-22T15:09:27.936Z,28.10
2018-07-22T15:11:56.038Z,28.00
2018-07-22T15:14:24.215Z,28.00
2018-07-22T15:16:52.693Z,28.00
2018-07-22T15:19:20.866Z,27.90
2018-07-22T15:21:49.040Z,27.90
2018-07-22T15:24:17.140Z,27.90
2018-07-22T15:26:45.246Z,27.80
2018-07-22T15:29:13.335Z,27.80
2018-07-22T15:31:41.493Z,27.70
2018-07-22T15:34:09.567Z,27.60
2018-07-22T15:36:42.752Z,27.50
2018-07-22T15:39:12.002Z,27.40
2018-07-22T15:44:08.228Z,27.30
2018-07-22T15:46:36.463Z,27.30
2018-07-22T15:49:05.134Z,27.30
2018-07-22T15:51:33.418Z,27.40
2018-07-22T15:54:01.516Z,27.30
2018-07-22T15:56:29.638Z,27.40
2018-07-22T15:58:57.722Z,27.50
2018-07-22T16:01:25.889Z,27.50
2018-07-22T16:03:54.015Z,27.50
2018-07-22T16:06:22.278Z,27.50
2018-07-22T16:08:50.442Z,27.40
2018-07-22T16:11:18.580Z,27.40
2018-07-22T16:13:46.676Z,27.40
2018-07-22T16:16:14.811Z,27.50
2018-07-22T16:18:42.896Z,27.50
2018-07-22T16:21:10.991Z,27.60
2018-07-22T16:23:39.163Z,27.60
2018-07-22T16:26:07.402Z,27.80
2018-07-22T16:28:35.492Z,27.80
2018-07-22T16:31:03.620Z,27.80
2018-07-22T16:33:31.959Z,27.80
2018-07-22T16:36:00.053Z,27.80
2018-07-22T16:38:29.022Z,27.60
2018-07-22T16:40:57.135Z,27.50
2018-07-22T16:43:26.189Z,27.40
2018-07-22T16:45:54.318Z,27.20
2018-07-22T16:48:23.736Z,27.20
2018-07-22T16:50:52.851Z,27.10
2018-07-22T16:53:22.683Z,27.00
2018-07-22T16:55:51.794Z,26.90
2018-07-22T16:58:20.934Z,26.80
2018-07-22T17:00:49.055Z,26.80
2018-07-22T17:03:17.171Z,26.70
2018-07-22T17:05:46.097Z,26.70
2018-07-22T17:08:14.280Z,26.70
2018-07-22T17:10:43.564Z,26.60
2018-07-22T17:15:41.083Z,26.40
2018-07-22T17:18:09.163Z,26.50
2018-07-22T17:20:38.500Z,26.50
2018-07-22T17:23:06.832Z,26.50
2018-07-22T17:25:34.947Z,26.60
2018-07-22T17:28:03.070Z,26.60
2018-07-22T17:30:31.129Z,26.60
2018-07-22T17:32:59.240Z,26.70
2018-07-22T17:35:27.369Z,26.80
2018-07-22T17:37:55.462Z,26.90
2018-07-22T17:42:51.432Z,27.00
2018-07-22T17:45:19.549Z,27.00
2018-07-22T17:47:47.647Z,27.00
2018-07-22T17:50:15.714Z,27.00
2018-07-22T17:52:43.868Z,26.90
2018-07-22T17:55:12.787Z,26.70
2018-07-22T17:57:40.907Z,26.60
2018-07-22T18:00:09.467Z,26.50
2018-07-22T18:02:39.315Z,26.30
2018-07-22T18:05:07.380Z,26.30
2018-07-22T18:07:35.483Z,26.20
2018-07-22T18:10:03.756Z,26.20
2018-07-22T18:12:31.916Z,26.10
2018-07-22T18:15:00.083Z,26.00
2018-07-22T18:17:28.204Z,25.90
2018-07-22T18:19:56.273Z,25.80
2018-07-22T18:22:24.428Z,25.60
2018-07-22T18:24:52.462Z,25.50
2018-07-22T18:27:20.583Z,25.40
2018-07-22T18:29:48.639Z,25.30
2018-07-22T18:32:16.775Z,25.20
2018-07-22T18:34:44.857Z,25.20
2018-07-22T18:37:13.023Z,25.20
2018-07-22T18:39:41.000Z,25.10
2018-07-22T18:42:09.092Z,25.00
2018-07-22T18:44:37.142Z,24.90
2018-07-22T18:47:05.312Z,24.90
2018-07-22T18:49:33.422Z,24.90
2018-07-22T18:52:01.499Z,24.90
2018-07-22T18:54:29.571Z,24.80
2018-07-22T18:56:57.646Z,24.80
2018-07-22T18:59:25.785Z,24.80
2018-07-22T19:01:53.873Z,24.80
2018-07-22T19:04:21.915Z,24.90
2018-07-22T19:09:17.855Z,24.90
2018-07-22T19:11:46.006Z,24.80
2018-07-22T19:14:14.139Z,24.80
2018-07-22T19:16:42.243Z,24.60
2018-07-22T19:19:10.482Z,24.60
2018-07-22T19:21:38.513Z,24.50
2018-07-22T19:24:06.682Z,24.40
2018-07-22T19:26:34.827Z,24.30
2018-07-22T19:29:02.907Z,24.10
2018-07-22T19:31:31.016Z,24.00
2018-07-22T19:33:59.210Z,23.90
2018-07-22T19:38:55.342Z,23.70
2018-07-22T19:43:51.432Z,23.60
2018-07-22T19:46:19.579Z,23.60
2018-07-22T19:48:47.683Z,23.50
2018-07-22T19:51:15.867Z,23.50
2018-07-22T19:53:44.066Z,23.60
2018-07-22T19:56:12.191Z,23.60
2018-07-22T19:58:40.383Z,23.50
2018-07-22T20:01:08.442Z,23.60
2018-07-22T20:03:36.546Z,23.50
2018-07-22T20:06:04.652Z,23.50
2018-07-22T20:08:32.755Z,23.40
2018-07-22T20:11:00.824Z,23.40
2018-07-22T20:13:28.936Z,23.30
2018-07-22T20:15:57.047Z,23.20
2018-07-22T20:18:25.268Z,23.20
2018-07-22T20:20:53.266Z,23.10
2018-07-22T20:23:21.445Z,23.10
2018-07-22T20:25:49.567Z,23.00
2018-07-22T20:28:17.786Z,23.00
2018-07-22T20:30:45.907Z,22.90
2018-07-22T20:33:14.015Z,22.80
2018-07-22T20:35:42.113Z,22.80
2018-07-22T20:38:10.191Z,22.70
2018-07-22T20:40:38.256Z,22.60
2018-07-22T20:43:06.461Z,22.60
2018-07-22T20:45:34.633Z,22.50
2018-07-22T20:48:02.739Z,22.50
2018-07-22T20:50:30.822Z,22.50
2018-07-22T20:52:59.028Z,22.40
2018-07-22T20:55:27.167Z,22.40
2018-07-22T20:57:55.340Z,22.40
2018-07-22T21:00:23.402Z,22.30
2018-07-22T21:02:51.454Z,22.30
2018-07-22T21:05:19.575Z,22.30
2018-07-22T21:07:47.639Z,22.20
2018-07-22T21:10:15.756Z,22.20
2018-07-22T21:12:55.941Z,22.10
2018-07-22T21:15:24.121Z,22.00
2018-07-22T21:17:52.669Z,22.00
2018-07-22T21:20:21.624Z,22.00
2018-07-22T21:22:49.737Z,21.90
2018-07-22T21:25:18.268Z,21.90
2018-07-22T21:27:46.545Z,21.90
2018-07-22T21:30:15.154Z,21.80
2018-07-22T21:32:43.316Z,21.80
2018-07-22T21:35:11.478Z,21.80
2018-07-22T21:37:39.757Z,21.80
2018-07-22T21:40:07.881Z,21.80
2018-07-22T21:42:36.067Z,21.80
2018-07-22T21:45:05.018Z,21.80
2018-07-22T21:47:33.191Z,21.80
2018-07-22T21:50:01.279Z,21.80
2018-07-22T21:52:29.421Z,21.70
2018-07-22T21:54:57.628Z,21.70
2018-07-22T21:57:25.709Z,21.60
2018-07-22T21:59:53.803Z,21.50
2018-07-22T22:02:26.125Z,21.50
2018-07-22T22:04:55.086Z,21.50
2018-07-22T22:07:23.330Z,21.40
2018-07-22T22:09:51.442Z,21.40
2018-07-22T22:12:19.534Z,21.40
2018-07-22T22:17:15.624Z,21.30
2018-07-22T22:19:43.900Z,21.30
2018-07-22T22:22:12.023Z,21.30
2018-07-22T22:24:40.153Z,21.20
2018-07-22T22:27:08.215Z,21.20
2018-07-22T22:29:36.354Z,21.20
2018-07-22T22:32:04.489Z,21.10
2018-07-22T22:34:32.650Z,21.10
2018-07-22T22:37:00.780Z,21.00
2018-07-22T22:39:28.900Z,21.00
2018-07-22T22:41:57.019Z,21.00
2018-07-22T22:44:25.092Z,21.00
2018-07-22T22:46:53.176Z,20.90
2018-07-22T22:49:21.256Z,20.90
2018-07-22T22:51:49.350Z,20.90
2018-07-22T22:54:17.446Z,20.90
2018-07-22T22:56:45.535Z,20.80
2018-07-22T22:59:16.723Z,20.80
2018-07-22T23:01:44.904Z,20.70
2018-07-22T23:06:40.905Z,20.70
2018-07-22T23:09:10.558Z,20.70
2018-07-22T23:11:39.247Z,20.60
2018-07-22T23:14:07.569Z,20.60
2018-07-22T23:16:35.667Z,20.50
2018-07-22T23:19:03.808Z,20.50
2018-07-22T23:21:31.937Z,20.50
2018-07-22T23:24:00.247Z,20.50
2018-07-22T23:26:28.714Z,20.40
2018-07-22T23:31:24.941Z,20.40
2018-07-22T23:33:53.137Z,20.40
2018-07-22T23:36:21.239Z,20.40
2018-07-22T23:38:49.318Z,20.40
2018-07-22T23:41:17.452Z,20.40
2018-07-22T23:43:45.536Z,20.40
2018-07-22T23:46:13.637Z,20.30
2018-07-22T23:48:41.717Z,20.30
2018-07-22T23:51:09.838Z,20.30
2018-07-22T23:53:38.006Z,20.30
2018-07-22T23:56:06.104Z,20.30
2018-07-22T23:58:34.196Z,20.20
